createdAt,value
2023-11-28T00:01:17.514Z,93.72
2023-11-28T00:06:23.422Z,93.38
2023-11-28T00:11:25.959Z,93.20
2023-11-28T00:16:28.620Z,93.03
2023-11-28T00:21:32.520Z,93.29
2023-11-28T00:26:35.078Z,92.90
2023-11-28T00:31:37.662Z,92.59
2023-11-28T00:36:41.679Z,93.39
2023-11-28T00:41:44.471Z,93.06
2023-11-28T00:46:47.076Z,92.90
2023-11-28T00:51:51.025Z,93.16
2023-11-28T00:56:53.562Z,93.06
2023-11-28T01:01:56.198Z,93.29
2023-11-28T01:07:00.264Z,93.34
2023-11-28T01:12:02.959Z,93.26
2023-11-28T01:17:08.355Z,94.00
2023-11-28T01:22:12.813Z,93.34
2023-11-28T01:27:15.353Z,93.62
2023-11-28T01:32:18.051Z,93.06
2023-11-28T01:37:22.836Z,93.82
2023-11-28T01:42:25.558Z,93.89
2023-11-28T01:47:28.837Z,93.93
2023-11-28T01:52:33.961Z,93.83
2023-11-28T01:57:36.572Z,93.78
2023-11-28T02:02:39.312Z,93.75
2023-11-28T02:07:44.452Z,93.63
2023-11-28T02:12:47.756Z,94.44
2023-11-28T02:17:50.517Z,94.24
2023-11-28T02:22:54.502Z,94.06
2023-11-28T02:27:58.603Z,94.34
2023-11-28T02:33:01.221Z,93.97
2023-11-28T02:38:03.838Z,93.71
2023-11-28T02:43:07.778Z,94.33
2023-11-28T02:48:10.315Z,93.65
2023-11-28T02:53:13.219Z,93.76
2023-11-28T02:58:17.081Z,94.47
2023-11-28T03:03:19.715Z,93.68
2023-11-28T03:08:22.366Z,94.41
2023-11-28T03:13:26.268Z,93.88
2023-11-28T03:18:28.790Z,94.11
2023-11-28T03:23:31.328Z,94.89
2023-11-28T03:28:35.324Z,94.47
2023-11-28T03:33:37.913Z,95.50
2023-11-28T03:38:40.508Z,95.22
2023-11-28T03:43:44.448Z,94.94
2023-11-28T03:48:47.079Z,95.73
2023-11-28T03:53:49.737Z,95.78
2023-11-28T03:58:53.878Z,95.76
2023-11-28T04:03:56.428Z,95.16
2023-11-28T04:08:59.013Z,95.24
2023-11-28T04:14:03.374Z,94.97
2023-11-28T04:19:06.072Z,94.67
2023-11-28T04:24:08.725Z,94.92
2023-11-28T04:29:13.520Z,94.23
2023-11-28T04:34:16.612Z,95.28
2023-11-28T04:39:19.122Z,97.40
2023-11-28T04:44:23.184Z,98.87
2023-11-28T04:49:25.740Z,100.00
2023-11-28T04:54:28.275Z,100.00
2023-11-28T04:59:32.110Z,100.00
2023-11-28T05:04:34.672Z,100.00
2023-11-28T05:09:37.695Z,100.00
2023-11-28T05:14:41.797Z,100.00
2023-11-28T05:19:44.981Z,100.00
2023-11-28T05:24:47.532Z,100.00
2023-11-28T05:29:51.369Z,100.00
2023-11-28T05:34:53.889Z,100.00
2023-11-28T05:39:56.411Z,100.00
2023-11-28T05:45:00.711Z,100.00
2023-11-28T05:50:03.802Z,100.00
2023-11-28T05:55:07.386Z,100.00
2023-11-28T06:00:15.543Z,100.00
2023-11-28T06:05:19.707Z,100.00
2023-11-28T06:10:22.270Z,100.00
2023-11-28T06:15:27.118Z,100.00
2023-11-28T06:20:29.641Z,100.00
2023-11-28T06:25:33.478Z,100.00
2023-11-28T06:30:37.355Z,100.00
2023-11-28T06:35:40.052Z,100.00
2023-11-28T06:40:42.666Z,100.00
2023-11-28T06:45:46.607Z,100.00
2023-11-28T06:50:49.161Z,100.00
2023-11-28T06:55:51.737Z,100.00
2023-11-28T07:00:56.098Z,100.00
2023-11-28T07:05:58.700Z,100.00
2023-11-28T07:11:01.268Z,100.00
2023-11-28T07:16:05.642Z,100.00
2023-11-28T07:21:08.936Z,100.00
2023-11-28T07:26:11.872Z,100.00
2023-11-28T07:31:16.373Z,100.00
2023-11-28T07:36:18.896Z,100.00
2023-11-28T07:41:21.434Z,100.00
2023-11-28T07:46:25.559Z,100.00
2023-11-28T07:51:28.150Z,100.00
2023-11-28T07:56:30.666Z,99.23
2023-11-28T08:01:34.503Z,99.36
2023-11-28T08:06:37.030Z,98.15
2023-11-28T08:11:39.607Z,97.36
2023-11-28T08:16:43.554Z,96.89
2023-11-28T08:21:46.149Z,95.44
2023-11-28T08:26:48.661Z,92.86
2023-11-28T08:31:52.890Z,92.72
2023-11-28T08:36:55.584Z,92.42
2023-11-28T08:41:58.523Z,92.51
2023-11-28T08:47:02.574Z,91.71
2023-11-28T08:52:07.547Z,91.81
2023-11-28T08:57:16.364Z,91.57
2023-11-28T09:02:20.990Z,91.75
2023-11-28T09:07:24.244Z,90.82
2023-11-28T09:12:27.066Z,90.69
2023-11-28T09:17:31.100Z,90.64
2023-11-28T09:22:33.763Z,90.26
2023-11-28T09:27:36.286Z,90.40
2023-11-28T09:32:40.270Z,90.34
2023-11-28T09:37:42.915Z,90.37
2023-11-28T09:42:46.348Z,89.70
2023-11-28T09:47:53.482Z,89.00
2023-11-28T09:52:56.138Z,89.00
2023-11-28T09:57:59.173Z,89.15
2023-11-28T10:03:04.208Z,89.32
2023-11-28T10:08:10.051Z,88.92
2023-11-28T10:13:13.921Z,88.18
2023-11-28T10:18:21.264Z,89.00
2023-11-28T10:23:23.838Z,89.39
2023-11-28T10:28:26.455Z,88.62
2023-11-28T10:33:30.434Z,88.46
2023-11-28T10:38:36.049Z,88.37
2023-11-28T10:43:38.615Z,87.76
2023-11-28T10:48:42.598Z,86.92
2023-11-28T10:53:48.139Z,86.66
2023-11-28T10:58:50.709Z,85.20
2023-11-28T11:03:55.609Z,83.94
2023-11-28T11:09:00.200Z,83.20
2023-11-28T11:14:12.239Z,84.16
2023-11-28T11:19:16.779Z,83.22
2023-11-28T11:24:21.309Z,82.04
2023-11-28T11:29:41.354Z,82.62
2023-11-28T11:34:46.550Z,82.12
2023-11-28T11:39:50.337Z,81.03
2023-11-28T11:44:54.196Z,80.33
2023-11-28T11:50:01.863Z,79.34
2023-11-28T11:55:06.393Z,77.84
2023-11-28T12:00:11.800Z,78.38
2023-11-28T12:05:16.153Z,78.74
2023-11-28T12:10:18.860Z,79.14
2023-11-28T12:15:21.419Z,79.41
2023-11-28T12:20:32.993Z,79.42
2023-11-28T12:25:43.884Z,79.34
2023-11-28T12:30:47.514Z,77.88
2023-11-28T12:35:51.460Z,74.82
2023-11-28T12:41:02.575Z,73.78
2023-11-28T12:46:13.801Z,73.04
2023-11-28T12:51:19.278Z,72.30
2023-11-28T12:56:21.827Z,72.51
2023-11-28T13:01:24.542Z,73.49
2023-11-28T13:06:30.495Z,73.08
2023-11-28T13:11:34.505Z,72.50
2023-11-28T13:16:38.026Z,71.54
2023-11-28T13:21:42.541Z,72.58
2023-11-28T13:26:45.052Z,71.74
2023-11-28T13:31:47.798Z,70.81
2023-11-28T13:36:51.850Z,70.65
2023-11-28T13:41:54.419Z,71.77
2023-11-28T13:46:56.988Z,72.41
2023-11-28T13:52:01.953Z,71.20
2023-11-28T13:57:04.617Z,71.58
2023-11-28T14:02:07.409Z,71.21
2023-11-28T14:07:12.741Z,71.33
2023-11-28T14:12:15.458Z,71.55
2023-11-28T14:17:18.154Z,72.45
2023-11-28T14:22:24.508Z,71.35
2023-11-28T14:27:27.106Z,71.66
2023-11-28T14:32:29.723Z,71.43
2023-11-28T14:37:34.101Z,71.89
2023-11-28T14:42:37.004Z,71.74
2023-11-28T14:47:39.815Z,71.76
2023-11-28T14:52:43.790Z,72.03
2023-11-28T14:57:46.359Z,72.46
2023-11-28T15:02:49.241Z,72.25
2023-11-28T15:07:53.228Z,71.93
2023-11-28T15:12:58.092Z,71.62
2023-11-28T15:18:00.741Z,73.29
2023-11-28T15:23:05.165Z,73.41
2023-11-28T15:28:12.030Z,75.42
2023-11-28T15:33:14.856Z,74.83
2023-11-28T15:38:19.844Z,73.48
2023-11-28T15:43:28.286Z,72.38
2023-11-28T15:48:30.829Z,72.91
2023-11-28T15:53:34.725Z,72.28
2023-11-28T15:58:37.526Z,71.73
2023-11-28T16:03:40.165Z,70.35
2023-11-28T16:08:44.664Z,70.64
2023-11-28T16:13:47.252Z,67.36
2023-11-28T16:18:50.495Z,67.10
2023-11-28T16:23:54.822Z,67.59
2023-11-28T16:28:57.464Z,66.51
2023-11-28T16:34:00.112Z,67.48
2023-11-28T16:39:06.813Z,68.46
2023-11-28T16:44:09.408Z,68.48
2023-11-28T16:49:12.748Z,68.53
2023-11-28T16:54:16.830Z,68.55
2023-11-28T16:59:19.552Z,69.74
2023-11-28T17:04:22.530Z,69.90
2023-11-28T17:09:27.134Z,70.47
2023-11-28T17:14:31.219Z,71.27
2023-11-28T17:19:33.942Z,71.24
2023-11-28T17:24:37.865Z,71.95
2023-11-28T17:29:41.152Z,72.64
2023-11-28T17:34:44.225Z,73.22
2023-11-28T17:39:48.073Z,74.03
2023-11-28T17:44:51.381Z,74.13
2023-11-28T17:49:53.986Z,73.81
2023-11-28T17:54:59.496Z,74.34
2023-11-28T18:00:02.097Z,74.72
2023-11-28T18:05:05.203Z,75.78
2023-11-28T18:10:10.400Z,75.77
2023-11-28T18:20:19.697Z,75.88
2023-11-28T18:25:23.685Z,76.20
2023-11-28T18:30:26.486Z,76.39
2023-11-28T18:35:29.054Z,76.73
2023-11-28T18:40:32.924Z,76.61
2023-11-28T18:45:35.522Z,76.54
2023-11-28T18:50:38.713Z,76.60
2023-11-28T18:55:42.581Z,77.07
2023-11-28T19:00:45.226Z,76.98
2023-11-28T19:05:51.834Z,77.66
2023-11-28T19:10:56.083Z,77.90
2023-11-28T19:15:58.783Z,78.20
2023-11-28T19:21:01.775Z,78.48
2023-11-28T19:26:05.744Z,79.16
2023-11-28T19:31:08.310Z,79.36
2023-11-28T19:36:11.669Z,79.51
2023-11-28T19:41:15.577Z,79.93
2023-11-28T19:46:19.555Z,79.54
2023-11-28T19:51:22.382Z,79.77
2023-11-28T19:56:26.337Z,80.15
2023-11-28T20:01:28.916Z,79.97
2023-11-28T20:06:31.591Z,80.12
2023-11-28T20:11:38.083Z,80.06
2023-11-28T20:16:42.424Z,80.52
2023-11-28T20:21:46.453Z,80.52
2023-11-28T20:26:51.656Z,80.38
2023-11-28T20:31:54.278Z,80.78
2023-11-28T20:37:10.175Z,80.82
2023-11-28T20:42:21.938Z,81.11
2023-11-28T20:47:24.541Z,80.90
2023-11-28T20:52:27.163Z,81.04
2023-11-28T20:57:33.482Z,80.73
2023-11-28T21:02:36.561Z,80.81
2023-11-28T21:07:39.136Z,81.34
2023-11-28T21:12:43.038Z,81.18
2023-11-28T21:17:45.705Z,81.53
2023-11-28T21:22:48.352Z,81.50
2023-11-28T21:27:52.312Z,81.45
2023-11-28T21:32:55.253Z,81.85
2023-11-28T21:37:59.212Z,82.25
2023-11-28T21:43:03.242Z,81.99
2023-11-28T21:48:15.537Z,81.84
2023-11-28T21:53:25.675Z,82.41
2023-11-28T21:58:29.653Z,82.30
2023-11-28T22:03:34.623Z,82.81
2023-11-28T22:08:47.498Z,83.03
2023-11-28T22:13:58.145Z,83.22
2023-11-28T22:19:00.768Z,83.05
2023-11-28T22:24:03.443Z,82.59
2023-11-28T22:29:08.662Z,82.79
2023-11-28T22:34:11.259Z,82.86
2023-11-28T22:39:13.782Z,82.47
2023-11-28T22:44:17.866Z,82.74
2023-11-28T22:49:20.430Z,82.60
2023-11-28T22:54:22.965Z,83.03
2023-11-28T22:59:26.843Z,83.32
2023-11-28T23:04:30.443Z,83.82
2023-11-28T23:09:34.338Z,84.70
2023-11-28T23:14:38.456Z,85.85
2023-11-28T23:19:41.080Z,86.86
2023-11-28T23:24:43.718Z,86.51
2023-11-28T23:29:47.579Z,86.33
2023-11-28T23:34:50.341Z,87.08
2023-11-28T23:39:52.949Z,86.97
2023-11-28T23:44:56.860Z,87.07
2023-11-28T23:49:59.389Z,87.32
2023-11-28T23:55:01.947Z,87.16
